EVERETT DAM ON PISCATAOUOG R: From 01/08/2022 22:00 to 01/23/2022 04:00

Date LAKE ELEVATION [FT] PRECIPITATION INCREMENT [IN] RESERVOIR RELEASES [CFS] TAILWATER STAGE [FT]
01/22/2022 18:00 -- 0.00 -- --
01/22/2022 17:00 340.99 0.00 -- --
01/22/2022 16:00 340.99 0.00 -- --
01/22/2022 15:00 340.99 0.00 -- --
01/22/2022 14:00 340.99 0.00 -- --
01/22/2022 13:00 340.99 0.00 -- --
01/22/2022 12:00 340.99 0.00 -- --
01/22/2022 11:00 340.99 0.00 -- --
01/22/2022 10:00 340.99 0.00 -- --
01/22/2022 09:00 340.99 0.00 -- --
01/22/2022 08:00 340.99 0.00 -- --
01/22/2022 07:00 340.99 0.00 -- --
01/22/2022 06:00 340.99 0.00 -- --
01/22/2022 05:00 340.99 0.00 -- --
01/22/2022 04:00 340.99 0.00 -- --
01/22/2022 03:00 341.02 0.00 -- --
01/22/2022 02:00 341.02 0.00 -- --
01/22/2022 01:00 341.02 0.00 -- --
01/22/2022 00:00 341.05 0.00 -- --
01/21/2022 23:00 341.05 0.00 -- --
01/21/2022 22:00 341.05 0.00 -- --
01/21/2022 21:00 341.05 0.00 -- --
01/21/2022 20:00 341.05 0.00 -- --
01/21/2022 19:00 341.08 0.00 -- --
01/21/2022 18:00 341.08 0.00 -- --
01/21/2022 17:00 341.08 0.00 -- --
01/21/2022 16:00 341.08 0.00 -- --
01/21/2022 15:00 341.08 0.00 -- --
01/21/2022 14:00 341.08 0.00 -- --
01/21/2022 13:00 341.08 0.00 -- --
01/21/2022 12:00 341.08 0.00 -- --
01/21/2022 11:00 341.08 0.00 -- --
01/21/2022 10:00 341.08 0.00 -- --
01/21/2022 09:00 341.08 0.00 -- --
01/21/2022 08:00 341.08 0.00 -- --
01/21/2022 07:00 341.08 0.00 -- --
01/21/2022 06:00 341.08 0.00 -- --
01/21/2022 05:00 341.08 0.00 -- --
01/21/2022 04:00 341.11 0.00 -- --
01/21/2022 03:00 341.11 0.00 -- --
01/21/2022 02:00 341.11 0.00 -- --
01/21/2022 01:00 341.11 0.00 -- --
01/21/2022 00:00 341.14 0.00 -- --
01/20/2022 23:00 341.14 0.00 -- --
01/20/2022 22:00 341.14 0.00 -- --
01/20/2022 21:00 341.17 0.00 -- --
01/20/2022 20:00 341.17 0.00 -- --
01/20/2022 19:00 341.17 0.00 -- --
01/20/2022 18:00 341.17 0.00 -- --
01/20/2022 17:00 341.17 0.00 -- --
01/20/2022 16:00 341.17 0.00 -- --
01/20/2022 15:00 341.17 0.00 -- --
01/20/2022 14:00 341.17 0.00 -- --
01/20/2022 13:00 341.17 0.00 -- --
01/20/2022 12:00 341.17 0.00 -- --
01/20/2022 11:00 341.17 0.00 -- --
01/20/2022 10:00 341.17 0.00 -- --
01/20/2022 09:00 341.17 0.00 -- --
01/20/2022 08:00 341.17 0.00 -- --
01/20/2022 07:00 341.17 0.00 -- --
01/20/2022 06:00 341.17 0.00 -- --
01/20/2022 05:00 341.17 0.00 -- --
01/20/2022 04:00 341.17 0.00 -- --
01/20/2022 03:00 341.17 0.00 -- --
01/20/2022 02:00 341.17 0.00 132.0 5.69
01/20/2022 01:00 341.17 0.00 132.0 5.69
01/20/2022 00:00 341.17 0.00 127.3 5.67
01/19/2022 23:00 341.17 0.00 134.3 5.70
01/19/2022 22:00 341.17 0.00 122.8 5.65
01/19/2022 21:00 341.17 0.00 129.7 5.68
01/19/2022 20:00 341.17 0.00 125.1 5.66
01/19/2022 19:00 341.17 0.00 129.7 5.68
01/19/2022 18:00 341.17 0.00 134.3 5.70
01/19/2022 17:00 341.17 0.00 134.3 5.70
01/19/2022 16:00 341.17 0.00 132.0 5.69
01/19/2022 15:00 341.17 0.00 136.7 5.71
01/19/2022 14:00 341.17 0.00 125.1 5.66
01/19/2022 13:00 341.17 0.00 129.7 5.68
01/19/2022 12:00 341.17 0.00 134.3 5.70
01/19/2022 11:00 341.17 0.00 134.3 5.70
01/19/2022 10:00 341.17 0.00 127.3 5.67
01/19/2022 09:00 341.17 0.00 129.7 5.68
01/19/2022 08:00 341.17 0.00 129.7 5.68
01/19/2022 07:00 341.17 0.00 125.1 5.66
01/19/2022 06:00 341.17 0.00 129.7 5.68
01/19/2022 05:00 341.17 0.00 125.1 5.66
01/19/2022 04:00 341.17 0.00 125.1 5.66
01/19/2022 03:00 341.17 0.00 -- --
01/19/2022 02:00 341.17 0.00 127.3 5.67
01/19/2022 01:00 341.17 0.00 129.7 5.68
01/19/2022 00:00 341.17 0.00 127.3 5.67
01/18/2022 23:00 341.17 0.00 132.0 5.69
01/18/2022 22:00 341.17 0.00 132.0 5.69
01/18/2022 21:00 341.20 0.00 127.3 5.67
01/18/2022 20:00 341.20 0.00 122.8 5.65
01/18/2022 19:00 341.20 0.00 127.3 5.67
01/18/2022 18:00 341.20 0.00 134.3 5.70
01/18/2022 17:00 341.20 0.00 122.8 5.65
01/18/2022 16:00 341.20 0.00 122.8 5.65
01/18/2022 15:00 341.20 0.00 129.7 5.68
01/18/2022 14:00 341.17 0.00 132.0 5.69
01/18/2022 13:00 341.20 0.00 134.3 5.70
01/18/2022 12:00 341.17 0.00 134.3 5.70
01/18/2022 11:00 341.17 0.00 125.1 5.66
01/18/2022 10:00 341.20 0.00 129.7 5.68
01/18/2022 09:00 341.17 0.00 129.7 5.68
01/18/2022 08:00 341.17 0.00 125.1 5.66
01/18/2022 07:00 341.17 0.00 127.3 5.67
01/18/2022 06:00 341.17 0.00 122.8 5.65
01/18/2022 05:00 341.17 0.00 122.8 5.65
01/18/2022 04:00 341.17 0.00 120.6 5.64
01/18/2022 03:00 341.17 0.00 122.8 5.65
01/18/2022 02:00 341.14 0.00 122.8 5.65
01/18/2022 01:00 341.14 0.00 122.8 5.65
01/18/2022 00:00 341.14 0.00 120.6 5.64
01/17/2022 23:00 341.14 0.00 120.6 5.64
01/17/2022 22:00 341.11 0.00 118.3 5.63
01/17/2022 21:00 341.11 0.00 118.3 5.63
01/17/2022 20:00 341.08 0.00 116.1 5.62
01/17/2022 19:00 341.08 0.00 113.9 5.61
01/17/2022 18:00 341.08 0.00 113.9 5.61
01/17/2022 17:00 341.05 0.00 111.8 5.60
01/17/2022 16:00 341.05 0.00 109.6 5.59
01/17/2022 15:00 341.05 0.00 107.5 5.58
01/17/2022 14:00 341.02 0.00 103.3 5.56
01/17/2022 13:00 340.99 0.00 101.2 5.55
01/17/2022 12:00 340.99 0.00 99.2 5.54
01/17/2022 11:00 340.99 0.00 99.2 5.54
01/17/2022 10:00 340.96 0.00 97.2 5.53
01/17/2022 09:00 340.99 0.01 97.2 5.53
01/17/2022 08:00 340.96 0.00 97.2 5.53
01/17/2022 07:00 340.96 0.11 95.2 5.52
01/17/2022 06:00 340.96 0.10 93.2 5.51
01/17/2022 05:00 340.93 0.14 91.2 5.50
01/17/2022 04:00 340.93 0.13 87.3 5.48
01/17/2022 03:00 340.93 0.06 87.3 5.48
01/17/2022 02:00 340.90 0.04 83.6 5.46
01/17/2022 01:00 340.87 0.03 80.0 5.44
01/17/2022 00:00 340.87 0.00 78.3 5.43
01/16/2022 23:00 340.87 0.00 76.5 5.42
01/16/2022 22:00 340.87 0.00 78.3 5.43
01/16/2022 21:00 340.87 0.00 76.5 5.42
01/16/2022 20:00 340.87 0.00 76.5 5.42
01/16/2022 19:00 340.87 0.00 76.5 5.42
01/16/2022 18:00 340.87 0.00 78.3 5.43
01/16/2022 17:00 340.87 0.00 78.3 5.43
01/16/2022 16:00 340.87 0.00 78.3 5.43
01/16/2022 15:00 340.87 0.00 78.3 5.43
01/16/2022 14:00 340.87 0.00 76.5 5.42
01/16/2022 13:00 340.87 0.00 78.3 5.43
01/16/2022 12:00 340.87 0.00 76.5 5.42
01/16/2022 11:00 340.84 0.00 74.8 5.41
01/16/2022 10:00 340.84 0.00 74.8 5.41
01/16/2022 09:00 340.84 0.00 73.1 5.40
01/16/2022 08:00 340.84 0.00 71.4 5.39
01/16/2022 07:00 340.84 0.00 71.4 5.39
01/16/2022 06:00 340.84 0.00 69.8 5.38
01/16/2022 05:00 340.84 0.00 71.4 5.39
01/16/2022 04:00 340.84 0.00 71.4 5.39
01/16/2022 03:00 340.84 0.00 73.1 5.40
01/16/2022 02:00 340.87 0.00 73.1 5.40
01/16/2022 01:00 340.87 0.00 74.8 5.41
01/16/2022 00:00 340.87 0.00 74.8 5.41
01/15/2022 23:00 340.87 0.00 74.8 5.41
01/15/2022 22:00 340.87 0.00 76.5 5.42
01/15/2022 21:00 340.87 0.00 76.5 5.42
01/15/2022 20:00 340.90 0.00 78.3 5.43
01/15/2022 19:00 340.90 0.00 78.3 5.43
01/15/2022 18:00 340.90 0.00 80.0 5.44
01/15/2022 17:00 340.90 0.00 81.8 5.45
01/15/2022 16:00 340.93 0.00 81.8 5.45
01/15/2022 15:00 340.93 0.00 83.6 5.46
01/15/2022 14:00 340.93 0.00 83.6 5.46
01/15/2022 13:00 340.93 0.00 83.6 5.46
01/15/2022 12:00 340.93 0.00 83.6 5.46
01/15/2022 11:00 340.93 0.00 83.6 5.46
01/15/2022 10:00 340.93 0.00 83.6 5.46
01/15/2022 09:00 340.93 0.00 81.8 5.45
01/15/2022 08:00 340.90 0.00 80.0 5.44
01/15/2022 07:00 340.93 0.00 80.0 5.44
01/15/2022 06:00 340.93 0.00 80.0 5.44
01/15/2022 05:00 340.93 0.00 81.8 5.45
01/15/2022 04:00 340.93 0.00 83.6 5.46
01/15/2022 03:00 340.96 0.00 83.6 5.46
01/15/2022 02:00 340.96 0.00 85.4 5.47
01/15/2022 01:00 340.96 0.00 87.3 5.48
01/15/2022 00:00 340.99 0.00 87.3 5.48
01/14/2022 23:00 340.99 0.00 91.2 5.50
01/14/2022 22:00 340.99 0.00 93.2 5.51
01/14/2022 21:00 341.02 0.00 93.2 5.51
01/14/2022 20:00 341.02 0.00 95.2 5.52
01/14/2022 19:00 341.02 0.00 97.2 5.53
01/14/2022 18:00 341.02 0.00 99.2 5.54
01/14/2022 17:00 340.99 0.00 99.2 5.54
01/14/2022 16:00 341.02 0.00 99.2 5.54
01/14/2022 15:00 340.99 0.00 101.2 5.55
01/14/2022 14:00 341.02 0.00 101.2 5.55
01/14/2022 13:00 341.02 0.00 99.2 5.54
01/14/2022 12:00 341.02 0.00 99.2 5.54
01/14/2022 11:00 341.02 0.00 101.2 5.55
01/14/2022 10:00 341.02 0.00 101.2 5.55
01/14/2022 09:00 341.02 0.00 101.2 5.55
01/14/2022 08:00 341.02 0.00 99.2 5.54
01/14/2022 07:00 340.99 0.00 99.2 5.54
01/14/2022 06:00 340.99 0.00 101.2 5.55
01/14/2022 05:00 340.99 0.00 101.2 5.55
01/14/2022 04:00 340.99 0.00 101.2 5.55
01/14/2022 03:00 340.99 0.00 101.2 5.55
01/14/2022 02:00 340.99 0.00 101.2 5.55
01/14/2022 01:00 340.99 0.00 101.2 5.55
01/14/2022 00:00 340.99 0.00 101.2 5.55
01/13/2022 23:00 340.99 0.00 101.2 5.55
01/13/2022 22:00 340.99 0.00 101.2 5.55
01/13/2022 21:00 340.99 0.00 101.2 5.55
01/13/2022 20:00 341.02 0.00 101.2 5.55
01/13/2022 19:00 341.02 0.00 101.2 5.55
01/13/2022 18:00 341.02 0.00 103.3 5.56
01/13/2022 17:00 341.02 0.00 103.3 5.56
01/13/2022 16:00 341.02 0.00 101.2 5.55
01/13/2022 15:00 341.02 0.00 101.2 5.55
01/13/2022 14:00 341.02 0.00 103.3 5.56
01/13/2022 13:00 341.02 0.00 103.3 5.56
01/13/2022 12:00 341.02 0.00 103.3 5.56
01/13/2022 11:00 341.02 0.00 103.3 5.56
01/13/2022 10:00 341.02 0.00 103.3 5.56
01/13/2022 09:00 340.99 0.00 101.2 5.55
01/13/2022 08:00 341.02 0.00 101.2 5.55
01/13/2022 07:00 341.02 0.00 101.2 5.55
01/13/2022 06:00 341.02 0.00 101.2 5.55
01/13/2022 05:00 341.02 0.00 101.2 5.55
01/13/2022 04:00 341.02 0.00 101.2 5.55
01/13/2022 03:00 341.02 0.00 101.2 5.55
01/13/2022 02:00 341.02 0.00 101.2 5.55
01/13/2022 01:00 341.02 0.00 101.2 5.55
01/13/2022 00:00 341.02 0.00 101.2 5.55
01/12/2022 23:00 341.02 0.00 101.2 5.55
01/12/2022 22:00 341.02 0.00 101.2 5.55
01/12/2022 21:00 341.02 0.00 101.2 5.55
01/12/2022 20:00 340.99 0.00 101.2 5.55
01/12/2022 19:00 341.02 0.00 101.2 5.55
01/12/2022 18:00 340.99 0.00 101.2 5.55
01/12/2022 17:00 340.99 0.00 101.2 5.55
01/12/2022 16:00 340.99 0.00 101.2 5.55
01/12/2022 15:00 340.99 0.00 99.2 5.54
01/12/2022 14:00 340.99 0.00 99.2 5.54
01/12/2022 13:00 340.99 0.00 99.2 5.54
01/12/2022 12:00 340.99 0.00 97.2 5.53
01/12/2022 11:00 340.99 0.00 97.2 5.53
01/12/2022 10:00 340.96 0.00 93.2 5.51
01/12/2022 09:00 340.96 0.00 91.2 5.50
01/12/2022 08:00 340.96 0.00 89.3 5.49
01/12/2022 07:00 340.93 0.00 87.3 5.48
01/12/2022 06:00 340.93 0.00 87.3 5.48
01/12/2022 05:00 340.93 0.00 87.3 5.48
01/12/2022 04:00 340.93 0.00 89.3 5.49
01/12/2022 03:00 340.93 0.00 91.2 5.50
01/12/2022 02:00 340.96 0.00 93.2 5.51
01/12/2022 01:00 340.96 0.00 93.2 5.51
01/12/2022 00:00 340.96 0.00 95.2 5.52
01/11/2022 23:00 340.96 0.00 95.2 5.52
01/11/2022 22:00 340.96 0.00 95.2 5.52
01/11/2022 21:00 340.99 0.00 95.2 5.52
01/11/2022 20:00 340.99 0.00 97.2 5.53
01/11/2022 19:00 340.99 0.00 99.2 5.54
01/11/2022 18:00 340.99 0.00 99.2 5.54
01/11/2022 17:00 340.99 0.00 99.2 5.54
01/11/2022 16:00 340.99 0.00 101.2 5.55
01/11/2022 15:00 341.02 0.00 101.2 5.55
01/11/2022 14:00 341.02 0.00 103.3 5.56
01/11/2022 13:00 341.02 0.00 103.3 5.56
01/11/2022 12:00 341.02 0.00 103.3 5.56
01/11/2022 11:00 341.02 0.00 105.4 5.57
01/11/2022 10:00 341.02 0.00 105.4 5.57
01/11/2022 09:00 341.02 0.00 103.3 5.56
01/11/2022 08:00 341.02 0.00 103.3 5.56
01/11/2022 07:00 341.02 0.00 103.3 5.56
01/11/2022 06:00 341.05 0.00 103.3 5.56
01/11/2022 05:00 341.02 0.00 103.3 5.56
01/11/2022 04:00 341.05 0.00 -- --
01/11/2022 03:00 341.05 0.00 107.5 5.58
01/11/2022 02:00 341.05 0.00 107.5 5.58
01/11/2022 01:00 341.05 0.00 109.6 5.59
01/11/2022 00:00 341.08 0.00 111.8 5.60
01/10/2022 23:00 341.08 0.00 111.8 5.60
01/10/2022 22:00 341.08 0.00 113.9 5.61
01/10/2022 21:00 341.08 0.00 116.1 5.62
01/10/2022 20:00 341.08 0.00 118.3 5.63
01/10/2022 19:00 341.11 0.00 118.3 5.63
01/10/2022 18:00 341.08 0.00 118.3 5.63
01/10/2022 17:00 341.08 0.00 118.3 5.63
01/10/2022 16:00 341.11 0.00 118.3 5.63
01/10/2022 15:00 341.11 0.00 120.6 5.64
01/10/2022 14:00 341.11 0.00 120.6 5.64
01/10/2022 13:00 341.11 0.00 120.6 5.64
01/10/2022 12:00 341.11 0.00 120.6 5.64
01/10/2022 11:00 341.11 0.00 120.6 5.64
01/10/2022 10:00 341.11 0.00 120.6 5.64
01/10/2022 09:00 341.11 0.00 120.6 5.64
01/10/2022 08:00 341.11 0.00 120.6 5.64
01/10/2022 07:00 341.11 0.00 120.6 5.64
01/10/2022 06:00 341.11 0.00 122.8 5.65
01/10/2022 05:00 341.11 0.00 122.8 5.65
01/10/2022 04:00 341.11 0.00 122.8 5.65
01/10/2022 03:00 341.11 0.00 122.8 5.65
01/10/2022 02:00 341.11 0.00 120.6 5.64
01/10/2022 01:00 341.11 0.00 122.8 5.65
01/10/2022 00:00 341.11 0.00 122.8 5.65
01/09/2022 23:00 341.11 0.00 122.8 5.65
01/09/2022 22:00 341.11 0.00 122.8 5.65
01/09/2022 21:00 341.11 0.00 122.8 5.65
01/09/2022 20:00 341.11 0.00 127.3 5.67
01/09/2022 19:00 341.11 0.00 125.1 5.66
01/09/2022 18:00 341.11 0.00 125.1 5.66
01/09/2022 17:00 341.11 0.00 125.1 5.66
01/09/2022 16:00 341.11 0.00 125.1 5.66
01/09/2022 15:00 341.11 0.00 125.1 5.66
01/09/2022 14:00 341.11 0.00 127.3 5.67
01/09/2022 13:00 341.14 0.00 125.1 5.66
01/09/2022 12:00 341.14 0.00 127.3 5.67
01/09/2022 11:00 341.11 0.00 127.3 5.67
01/09/2022 10:00 341.11 0.00 125.1 5.66
01/09/2022 09:00 341.14 0.00 127.3 5.67
01/09/2022 08:00 341.14 0.00 125.1 5.66
01/09/2022 07:00 341.14 0.02 127.3 5.67
01/09/2022 06:00 341.11 0.00 125.1 5.66
01/09/2022 05:00 341.11 0.00 125.1 5.66
01/09/2022 04:00 341.11 0.00 122.8 5.65
01/09/2022 03:00 341.11 0.00 120.6 5.64
01/09/2022 02:00 341.11 0.00 120.6 5.64
01/09/2022 01:00 341.11 0.00 120.6 5.64
01/09/2022 00:00 341.11 0.00 120.6 5.64
01/08/2022 23:00 -- -- -- --
01/08/2022 22:00 -- -- -- --